createdAt,value
2023-03-14T00:02:45.312Z,98587.89
2023-03-14T00:17:47.877Z,98596.73
2023-03-14T00:32:50.778Z,98584.73
2023-03-14T00:47:53.201Z,98564.94
2023-03-14T01:02:55.940Z,98546.80
2023-03-14T01:18:12.970Z,98521.77
2023-03-14T01:33:15.427Z,98504.98
2023-03-14T01:48:18.220Z,98466.21
2023-03-14T02:03:24.296Z,98382.60
2023-03-14T02:18:27.189Z,98410.45
2023-03-14T02:34:38.982Z,98420.27
2023-03-14T02:49:42.327Z,98405.39
2023-03-14T03:04:44.883Z,98419.43
2023-03-14T03:19:47.540Z,98402.99
2023-03-14T03:34:50.273Z,98425.89
2023-03-14T03:49:52.797Z,98408.05
2023-03-14T04:04:55.371Z,98374.20
2023-03-14T04:19:58.031Z,98346.62
2023-03-14T04:35:00.496Z,98337.23
2023-03-14T04:50:03.376Z,98339.93
2023-03-14T05:05:07.021Z,98316.38
2023-03-14T05:20:24.146Z,98317.16
2023-03-14T05:35:27.076Z,98324.32
2023-03-14T05:50:30.417Z,98321.74
2023-03-14T06:05:33.310Z,98310.94
2023-03-14T06:20:40.047Z,98298.27
2023-03-14T06:35:43.339Z,98312.16
2023-03-14T06:50:46.521Z,98304.31
2023-03-14T07:05:49.567Z,98294.52
2023-03-14T07:20:52.229Z,98287.71
2023-03-14T07:35:55.396Z,98299.21
2023-03-14T07:50:58.356Z,98297.83
2023-03-14T08:06:00.916Z,98304.67
2023-03-14T08:21:03.755Z,98302.63
2023-03-14T08:36:07.355Z,98331.67
2023-03-14T08:51:14.312Z,98317.47
2023-03-14T09:06:18.345Z,98308.83
2023-03-14T09:21:22.270Z,98318.45
2023-03-14T09:36:25.004Z,98318.16
2023-03-14T09:51:28.652Z,98321.79
2023-03-14T10:06:31.786Z,98322.98
2023-03-14T10:21:44.594Z,98325.11
2023-03-14T10:36:52.380Z,98314.95
2023-03-14T10:51:55.100Z,98317.63
2023-03-14T11:07:40.021Z,98324.49
2023-03-14T11:22:58.724Z,98322.96
2023-03-14T11:38:39.890Z,98314.44
2023-03-14T11:54:03.196Z,98304.75
2023-03-14T12:09:08.693Z,98293.84
2023-03-14T12:24:22.764Z,98270.90
2023-03-14T12:40:00.656Z,98265.02
2023-03-14T12:55:25.504Z,98267.40
2023-03-14T13:10:36.888Z,98269.11
2023-03-14T13:25:41.957Z,98267.92
2023-03-14T13:40:47.226Z,98261.45
2023-03-14T13:55:52.204Z,98266.52
2023-03-14T14:11:04.949Z,98262.17
2023-03-14T14:26:09.214Z,98259.23
2023-03-14T14:41:13.589Z,98245.21
2023-03-14T14:56:27.664Z,98255.51
2023-03-14T15:11:55.817Z,98266.17
2023-03-14T15:26:58.673Z,98262.39
2023-03-14T15:42:02.873Z,98265.77
2023-03-14T15:57:07.033Z,98255.41
2023-03-14T16:12:10.087Z,98245.89
2023-03-14T16:27:13.215Z,98246.17
2023-03-14T16:42:16.831Z,98248.63
2023-03-14T16:57:19.915Z,98253.98
2023-03-14T17:12:23.242Z,98260.73
2023-03-14T17:27:26.364Z,98284.77
2023-03-14T17:42:30.925Z,98302.65
2023-03-14T17:57:48.386Z,98319.92
2023-03-14T18:12:51.518Z,98325.18
2023-03-14T18:27:54.697Z,98330.13
2023-03-14T18:42:57.448Z,98340.87
2023-03-14T18:58:00.535Z,98344.86
2023-03-14T19:13:03.637Z,98350.77
2023-03-14T19:28:22.241Z,98354.04
2023-03-14T19:43:28.567Z,98364.19
2023-03-14T19:58:32.800Z,98551.97
2023-03-14T20:13:35.814Z,98661.15
2023-03-14T20:28:53.064Z,98772.81
2023-03-14T20:43:57.354Z,98850.80
2023-03-14T20:59:00.461Z,98917.63
2023-03-14T21:14:04.821Z,98985.40
2023-03-14T21:29:08.235Z,99051.10
2023-03-14T21:59:51.972Z,99168.19
2023-03-14T22:14:55.276Z,99196.70
2023-03-14T22:30:00.947Z,99227.77
2023-03-14T22:45:04.450Z,99246.76
2023-03-14T23:00:12.435Z,99276.79
2023-03-14T23:15:15.630Z,99299.15
2023-03-14T23:30:18.241Z,99344.95
2023-03-14T23:45:20.858Z,99385.08
